sensor_id;sensor_type;location;lat;lon;timestamp;pressure;altitude;pressure_sealevel;temperature
18782;BMP180;9519;51.890;8.970;2023-08-31T00:02:44;98610.00;;;12.10
18782;BMP180;9519;51.890;8.970;2023-08-31T00:07:46;98598.00;;;12.10
18782;BMP180;9519;51.890;8.970;2023-08-31T00:12:49;98613.00;;;12.00
18782;BMP180;9519;51.890;8.970;2023-08-31T00:17:53;98610.00;;;12.00
18782;BMP180;9519;51.890;8.970;2023-08-31T00:22:55;98606.00;;;12.00
18782;BMP180;9519;51.890;8.970;2023-08-31T00:27:57;98609.00;;;11.90
18782;BMP180;9519;51.890;8.970;2023-08-31T00:33:07;98613.00;;;11.90
18782;BMP180;9519;51.890;8.970;2023-08-31T00:38:09;98606.00;;;11.90
18782;BMP180;9519;51.890;8.970;2023-08-31T00:43:12;98607.00;;;11.90
18782;BMP180;9519;51.890;8.970;2023-08-31T00:48:18;98601.00;;;11.90
18782;BMP180;9519;51.890;8.970;2023-08-31T00:53:21;98604.00;;;11.90
18782;BMP180;9519;51.890;8.970;2023-08-31T00:58:23;98601.00;;;11.80
18782;BMP180;9519;51.890;8.970;2023-08-31T01:03:39;98614.00;;;11.80
18782;BMP180;9519;51.890;8.970;2023-08-31T01:08:54;98611.00;;;11.70
18782;BMP180;9519;51.890;8.970;2023-08-31T01:14:05;98605.00;;;11.70
18782;BMP180;9519;51.890;8.970;2023-08-31T01:19:22;98609.00;;;11.70
18782;BMP180;9519;51.890;8.970;2023-08-31T01:24:31;98608.00;;;11.70
18782;BMP180;9519;51.890;8.970;2023-08-31T01:29:34;98610.00;;;11.70
18782;BMP180;9519;51.890;8.970;2023-08-31T01:34:36;98612.00;;;11.70
18782;BMP180;9519;51.890;8.970;2023-08-31T01:39:46;98614.00;;;11.60
18782;BMP180;9519;51.890;8.970;2023-08-31T01:44:51;98609.00;;;11.60
18782;BMP180;9519;51.890;8.970;2023-08-31T01:49:54;98620.00;;;11.50
18782;BMP180;9519;51.890;8.970;2023-08-31T01:54:58;98617.00;;;11.50
18782;BMP180;9519;51.890;8.970;2023-08-31T02:00:00;98620.00;;;11.50
18782;BMP180;9519;51.890;8.970;2023-08-31T02:05:06;98623.00;;;11.40
18782;BMP180;9519;51.890;8.970;2023-08-31T02:10:10;98625.00;;;11.40
18782;BMP180;9519;51.890;8.970;2023-08-31T02:15:12;98626.00;;;11.30
18782;BMP180;9519;51.890;8.970;2023-08-31T02:20:14;98624.00;;;11.30
18782;BMP180;9519;51.890;8.970;2023-08-31T02:25:18;98620.00;;;11.40
18782;BMP180;9519;51.890;8.970;2023-08-31T02:30:20;98625.00;;;11.40
18782;BMP180;9519;51.890;8.970;2023-08-31T02:35:23;98627.00;;;11.40
18782;BMP180;9519;51.890;8.970;2023-08-31T02:40:26;98625.00;;;11.50
18782;BMP180;9519;51.890;8.970;2023-08-31T02:45:28;98623.00;;;11.50
18782;BMP180;9519;51.890;8.970;2023-08-31T02:50:30;98632.00;;;11.50
18782;BMP180;9519;51.890;8.970;2023-08-31T02:55:34;98621.00;;;11.50
18782;BMP180;9519;51.890;8.970;2023-08-31T03:00:36;98639.00;;;11.50
18782;BMP180;9519;51.890;8.970;2023-08-31T03:05:40;98641.00;;;11.60
18782;BMP180;9519;51.890;8.970;2023-08-31T03:10:44;98632.00;;;11.60
18782;BMP180;9519;51.890;8.970;2023-08-31T03:15:46;98632.00;;;11.50
18782;BMP180;9519;51.890;8.970;2023-08-31T03:20:48;98622.00;;;11.50
18782;BMP180;9519;51.890;8.970;2023-08-31T03:25:51;98641.00;;;11.60
18782;BMP180;9519;51.890;8.970;2023-08-31T03:30:57;98637.00;;;11.60
18782;BMP180;9519;51.890;8.970;2023-08-31T03:36:03;98640.00;;;11.60
18782;BMP180;9519;51.890;8.970;2023-08-31T03:41:07;98622.00;;;11.60
18782;BMP180;9519;51.890;8.970;2023-08-31T03:46:09;98620.00;;;11.60
18782;BMP180;9519;51.890;8.970;2023-08-31T03:51:11;98629.00;;;11.60
18782;BMP180;9519;51.890;8.970;2023-08-31T03:56:14;98619.00;;;11.50
18782;BMP180;9519;51.890;8.970;2023-08-31T04:01:17;98626.00;;;11.50
18782;BMP180;9519;51.890;8.970;2023-08-31T04:06:19;98635.00;;;11.40
18782;BMP180;9519;51.890;8.970;2023-08-31T04:11:22;98641.00;;;11.30
18782;BMP180;9519;51.890;8.970;2023-08-31T04:16:24;98657.00;;;11.30
18782;BMP180;9519;51.890;8.970;2023-08-31T04:21:26;98657.00;;;11.30
18782;BMP180;9519;51.890;8.970;2023-08-31T04:26:30;98669.00;;;11.30
18782;BMP180;9519;51.890;8.970;2023-08-31T04:31:32;98668.00;;;11.20
18782;BMP180;9519;51.890;8.970;2023-08-31T04:36:34;98679.00;;;11.20
18782;BMP180;9519;51.890;8.970;2023-08-31T04:41:38;98680.00;;;11.20
18782;BMP180;9519;51.890;8.970;2023-08-31T04:46:40;98683.00;;;11.30
18782;BMP180;9519;51.890;8.970;2023-08-31T04:51:44;98686.00;;;11.30
18782;BMP180;9519;51.890;8.970;2023-08-31T04:56:48;98688.00;;;11.40
18782;BMP180;9519;51.890;8.970;2023-08-31T05:01:50;98689.00;;;11.40
18782;BMP180;9519;51.890;8.970;2023-08-31T05:06:52;98698.00;;;11.50
18782;BMP180;9519;51.890;8.970;2023-08-31T05:11:55;98696.00;;;11.50
18782;BMP180;9519;51.890;8.970;2023-08-31T05:16:57;98706.00;;;11.50
18782;BMP180;9519;51.890;8.970;2023-08-31T05:22:00;98712.00;;;11.50
18782;BMP180;9519;51.890;8.970;2023-08-31T05:27:04;98713.00;;;11.60
18782;BMP180;9519;51.890;8.970;2023-08-31T05:32:06;98729.00;;;11.50
18782;BMP180;9519;51.890;8.970;2023-08-31T05:37:08;98737.00;;;11.60
18782;BMP180;9519;51.890;8.970;2023-08-31T05:42:12;98742.00;;;11.60
18782;BMP180;9519;51.890;8.970;2023-08-31T05:47:14;98746.00;;;11.60
18782;BMP180;9519;51.890;8.970;2023-08-31T05:52:16;98731.00;;;11.60
18782;BMP180;9519;51.890;8.970;2023-08-31T05:57:20;98743.00;;;11.60
18782;BMP180;9519;51.890;8.970;2023-08-31T06:02:22;98746.00;;;11.60
18782;BMP180;9519;51.890;8.970;2023-08-31T06:07:24;98738.00;;;11.60
18782;BMP180;9519;51.890;8.970;2023-08-31T06:12:28;98740.00;;;11.70
18782;BMP180;9519;51.890;8.970;2023-08-31T06:17:30;98735.00;;;11.70
18782;BMP180;9519;51.890;8.970;2023-08-31T06:22:32;98741.00;;;11.70
18782;BMP180;9519;51.890;8.970;2023-08-31T06:27:35;98537.00;;;11.70
18782;BMP180;9519;51.890;8.970;2023-08-31T06:32:37;98545.00;;;11.80
18782;BMP180;9519;51.890;8.970;2023-08-31T06:37:40;98541.00;;;11.80
18782;BMP180;9519;51.890;8.970;2023-08-31T06:42:44;98540.00;;;11.80
18782;BMP180;9519;51.890;8.970;2023-08-31T06:47:48;98560.00;;;11.90
18782;BMP180;9519;51.890;8.970;2023-08-31T06:52:51;98549.00;;;11.90
18782;BMP180;9519;51.890;8.970;2023-08-31T06:57:54;98547.00;;;12.00
18782;BMP180;9519;51.890;8.970;2023-08-31T07:02:56;98753.00;;;12.10
18782;BMP180;9519;51.890;8.970;2023-08-31T07:07:58;98758.00;;;12.20
18782;BMP180;9519;51.890;8.970;2023-08-31T07:13:02;98754.00;;;12.30
18782;BMP180;9519;51.890;8.970;2023-08-31T07:18:04;98775.00;;;12.40
18782;BMP180;9519;51.890;8.970;2023-08-31T07:23:06;98771.00;;;12.40
18782;BMP180;9519;51.890;8.970;2023-08-31T07:28:10;98775.00;;;12.40
18782;BMP180;9519;51.890;8.970;2023-08-31T07:33:12;98767.00;;;12.50
18782;BMP180;9519;51.890;8.970;2023-08-31T07:38:15;98776.00;;;12.60
18782;BMP180;9519;51.890;8.970;2023-08-31T07:43:19;98784.00;;;12.60
18782;BMP180;9519;51.890;8.970;2023-08-31T07:48:21;98780.00;;;12.80
18782;BMP180;9519;51.890;8.970;2023-08-31T07:53:23;98774.00;;;12.90
18782;BMP180;9519;51.890;8.970;2023-08-31T07:58:27;98785.00;;;12.90
18782;BMP180;9519;51.890;8.970;2023-08-31T08:03:31;98782.00;;;13.10
18782;BMP180;9519;51.890;8.970;2023-08-31T08:08:33;98778.00;;;13.30
18782;BMP180;9519;51.890;8.970;2023-08-31T08:13:36;98793.00;;;13.40
18782;BMP180;9519;51.890;8.970;2023-08-31T08:18:38;98788.00;;;13.50
18782;BMP180;9519;51.890;8.970;2023-08-31T08:23:40;98803.00;;;13.50
18782;BMP180;9519;51.890;8.970;2023-08-31T08:28:44;98798.00;;;13.50
18782;BMP180;9519;51.890;8.970;2023-08-31T08:33:46;98799.00;;;13.50
18782;BMP180;9519;51.890;8.970;2023-08-31T08:38:48;98812.00;;;13.60
18782;BMP180;9519;51.890;8.970;2023-08-31T08:43:53;98814.00;;;13.60
18782;BMP180;9519;51.890;8.970;2023-08-31T08:48:57;98805.00;;;13.60
18782;BMP180;9519;51.890;8.970;2023-08-31T08:54:02;98811.00;;;13.50
18782;BMP180;9519;51.890;8.970;2023-08-31T08:59:05;98802.00;;;13.60
18782;BMP180;9519;51.890;8.970;2023-08-31T09:04:09;98797.00;;;13.60
18782;BMP180;9519;51.890;8.970;2023-08-31T09:09:11;98810.00;;;13.80
18782;BMP180;9519;51.890;8.970;2023-08-31T09:14:16;98810.00;;;13.90
18782;BMP180;9519;51.890;8.970;2023-08-31T09:19:19;98812.00;;;14.00
18782;BMP180;9519;51.890;8.970;2023-08-31T09:24:22;98803.00;;;14.20
18782;BMP180;9519;51.890;8.970;2023-08-31T09:29:26;98812.00;;;14.30
18782;BMP180;9519;51.890;8.970;2023-08-31T09:34:33;98813.00;;;14.40
18782;BMP180;9519;51.890;8.970;2023-08-31T09:39:36;98802.00;;;14.40
18782;BMP180;9519;51.890;8.970;2023-08-31T09:44:43;98804.00;;;14.30
18782;BMP180;9519;51.890;8.970;2023-08-31T09:49:47;98807.00;;;14.40
18782;BMP180;9519;51.890;8.970;2023-08-31T09:54:53;98822.00;;;14.50
18782;BMP180;9519;51.890;8.970;2023-08-31T09:59:58;98804.00;;;14.50
18782;BMP180;9519;51.890;8.970;2023-08-31T10:05:01;98813.00;;;14.40
18782;BMP180;9519;51.890;8.970;2023-08-31T10:10:05;98814.00;;;14.60
18782;BMP180;9519;51.890;8.970;2023-08-31T10:15:10;98812.00;;;14.70
18782;BMP180;9519;51.890;8.970;2023-08-31T10:20:16;98826.00;;;15.00
18782;BMP180;9519;51.890;8.970;2023-08-31T10:25:19;98823.00;;;15.10
18782;BMP180;9519;51.890;8.970;2023-08-31T10:30:26;98837.00;;;15.10
18782;BMP180;9519;51.890;8.970;2023-08-31T10:35:41;98826.00;;;15.00
18782;BMP180;9519;51.890;8.970;2023-08-31T10:46:29;98840.00;;;14.70
18782;BMP180;9519;51.890;8.970;2023-08-31T10:51:32;98851.00;;;14.50
18782;BMP180;9519;51.890;8.970;2023-08-31T10:57:03;98845.00;;;14.40
18782;BMP180;9519;51.890;8.970;2023-08-31T11:02:08;98846.00;;;14.40
18782;BMP180;9519;51.890;8.970;2023-08-31T11:07:17;98838.00;;;14.50
18782;BMP180;9519;51.890;8.970;2023-08-31T11:12:22;98826.00;;;14.60
18782;BMP180;9519;51.890;8.970;2023-08-31T11:17:28;98824.00;;;14.90
18782;BMP180;9519;51.890;8.970;2023-08-31T11:22:30;98831.00;;;15.20
18782;BMP180;9519;51.890;8.970;2023-08-31T11:27:32;98813.00;;;15.30
18782;BMP180;9519;51.890;8.970;2023-08-31T11:32:36;98847.00;;;15.30
18782;BMP180;9519;51.890;8.970;2023-08-31T11:37:38;98848.00;;;15.10
18782;BMP180;9519;51.890;8.970;2023-08-31T11:42:41;98851.00;;;14.80
18782;BMP180;9519;51.890;8.970;2023-08-31T11:47:45;98852.00;;;14.60
18782;BMP180;9519;51.890;8.970;2023-08-31T11:52:48;98845.00;;;14.60
18782;BMP180;9519;51.890;8.970;2023-08-31T11:57:53;98854.00;;;14.80
18782;BMP180;9519;51.890;8.970;2023-08-31T12:02:58;98842.00;;;14.90
18782;BMP180;9519;51.890;8.970;2023-08-31T12:08:00;98843.00;;;15.10
18782;BMP180;9519;51.890;8.970;2023-08-31T12:13:10;98850.00;;;15.30
18782;BMP180;9519;51.890;8.970;2023-08-31T12:18:14;98851.00;;;15.50
18782;BMP180;9519;51.890;8.970;2023-08-31T12:23:17;98857.00;;;15.60
18782;BMP180;9519;51.890;8.970;2023-08-31T12:28:23;98864.00;;;15.80
18782;BMP180;9519;51.890;8.970;2023-08-31T12:33:27;98860.00;;;16.00
18782;BMP180;9519;51.890;8.970;2023-08-31T12:38:29;98854.00;;;16.00
18782;BMP180;9519;51.890;8.970;2023-08-31T12:43:31;98856.00;;;16.00
18782;BMP180;9519;51.890;8.970;2023-08-31T12:48:34;98857.00;;;15.90
18782;BMP180;9519;51.890;8.970;2023-08-31T12:53:39;98852.00;;;16.00
18782;BMP180;9519;51.890;8.970;2023-08-31T12:58:42;98846.00;;;16.20
18782;BMP180;9519;51.890;8.970;2023-08-31T13:03:46;98862.00;;;16.40
18782;BMP180;9519;51.890;8.970;2023-08-31T13:08:48;98844.00;;;16.30
18782;BMP180;9519;51.890;8.970;2023-08-31T13:13:51;98861.00;;;16.30
18782;BMP180;9519;51.890;8.970;2023-08-31T13:18:55;98858.00;;;16.30
18782;BMP180;9519;51.890;8.970;2023-08-31T13:23:57;98860.00;;;16.40
18782;BMP180;9519;51.890;8.970;2023-08-31T13:29:01;98846.00;;;16.50
18782;BMP180;9519;51.890;8.970;2023-08-31T13:34:04;98855.00;;;16.50
18782;BMP180;9519;51.890;8.970;2023-08-31T13:39:07;98849.00;;;16.70
18782;BMP180;9519;51.890;8.970;2023-08-31T13:44:09;98839.00;;;17.00
18782;BMP180;9519;51.890;8.970;2023-08-31T13:49:13;98843.00;;;17.40
18782;BMP180;9519;51.890;8.970;2023-08-31T13:54:15;98839.00;;;17.60
18782;BMP180;9519;51.890;8.970;2023-08-31T13:59:17;98862.00;;;17.70
18782;BMP180;9519;51.890;8.970;2023-08-31T14:04:21;98859.00;;;17.10
18782;BMP180;9519;51.890;8.970;2023-08-31T14:09:23;98879.00;;;16.70
18782;BMP180;9519;51.890;8.970;2023-08-31T14:14:26;98902.00;;;16.30
18782;BMP180;9519;51.890;8.970;2023-08-31T14:19:29;98908.00;;;16.00
18782;BMP180;9519;51.890;8.970;2023-08-31T14:30:47;98955.00;;;15.20
18782;BMP180;9519;51.890;8.970;2023-08-31T14:35:51;98968.00;;;14.80
18782;BMP180;9519;51.890;8.970;2023-08-31T14:40:54;98966.00;;;14.50
18782;BMP180;9519;51.890;8.970;2023-08-31T14:45:56;98973.00;;;14.30
18782;BMP180;9519;51.890;8.970;2023-08-31T14:50:59;98974.00;;;14.20
18782;BMP180;9519;51.890;8.970;2023-08-31T14:56:01;98973.00;;;14.30
18782;BMP180;9519;51.890;8.970;2023-08-31T15:01:04;98965.00;;;14.90
18782;BMP180;9519;51.890;8.970;2023-08-31T15:06:07;98965.00;;;15.80
18782;BMP180;9519;51.890;8.970;2023-08-31T15:11:10;98958.00;;;16.30
18782;BMP180;9519;51.890;8.970;2023-08-31T15:16:12;98939.00;;;16.80
18782;BMP180;9519;51.890;8.970;2023-08-31T15:21:15;98944.00;;;17.10
18782;BMP180;9519;51.890;8.970;2023-08-31T15:26:18;98947.00;;;17.20
18782;BMP180;9519;51.890;8.970;2023-08-31T15:31:22;98952.00;;;17.20
18782;BMP180;9519;51.890;8.970;2023-08-31T15:36:26;98956.00;;;16.90
18782;BMP180;9519;51.890;8.970;2023-08-31T15:41:28;98960.00;;;16.60
18782;BMP180;9519;51.890;8.970;2023-08-31T15:46:34;98957.00;;;16.30
18782;BMP180;9519;51.890;8.970;2023-08-31T15:51:38;98963.00;;;16.30
18782;BMP180;9519;51.890;8.970;2023-08-31T15:56:40;98967.00;;;16.20
18782;BMP180;9519;51.890;8.970;2023-08-31T16:01:42;98964.00;;;16.30
18782;BMP180;9519;51.890;8.970;2023-08-31T16:06:46;98962.00;;;16.40
18782;BMP180;9519;51.890;8.970;2023-08-31T16:11:48;98962.00;;;16.40
18782;BMP180;9519;51.890;8.970;2023-08-31T16:16:50;98969.00;;;16.50
18782;BMP180;9519;51.890;8.970;2023-08-31T16:21:53;98973.00;;;16.60
18782;BMP180;9519;51.890;8.970;2023-08-31T16:26:55;98964.00;;;16.60
18782;BMP180;9519;51.890;8.970;2023-08-31T16:31:58;98981.00;;;16.70
18782;BMP180;9519;51.890;8.970;2023-08-31T16:37:01;98978.00;;;16.80
18782;BMP180;9519;51.890;8.970;2023-08-31T16:42:05;98974.00;;;16.70
18782;BMP180;9519;51.890;8.970;2023-08-31T16:47:08;98973.00;;;16.60
18782;BMP180;9519;51.890;8.970;2023-08-31T16:52:12;98988.00;;;16.50
18782;BMP180;9519;51.890;8.970;2023-08-31T16:57:14;98994.00;;;16.40
18782;BMP180;9519;51.890;8.970;2023-08-31T17:02:17;99006.00;;;16.30
18782;BMP180;9519;51.890;8.970;2023-08-31T17:07:20;99008.00;;;16.10
18782;BMP180;9519;51.890;8.970;2023-08-31T17:12:23;99017.00;;;16.00
18782;BMP180;9519;51.890;8.970;2023-08-31T17:17:25;99028.00;;;15.90
18782;BMP180;9519;51.890;8.970;2023-08-31T17:22:33;99029.00;;;15.80
18782;BMP180;9519;51.890;8.970;2023-08-31T17:27:35;99028.00;;;15.70
18782;BMP180;9519;51.890;8.970;2023-08-31T17:32:37;99037.00;;;15.50
18782;BMP180;9519;51.890;8.970;2023-08-31T17:37:41;99036.00;;;15.50
18782;BMP180;9519;51.890;8.970;2023-08-31T17:42:43;99037.00;;;15.30
18782;BMP180;9519;51.890;8.970;2023-08-31T17:47:45;99043.00;;;15.30
18782;BMP180;9519;51.890;8.970;2023-08-31T17:52:48;99040.00;;;15.20
18782;BMP180;9519;51.890;8.970;2023-08-31T17:57:51;99036.00;;;15.10
18782;BMP180;9519;51.890;8.970;2023-08-31T18:02:53;99028.00;;;15.10
18782;BMP180;9519;51.890;8.970;2023-08-31T18:07:59;99042.00;;;15.00
18782;BMP180;9519;51.890;8.970;2023-08-31T18:13:01;99042.00;;;15.00
18782;BMP180;9519;51.890;8.970;2023-08-31T18:18:04;99058.00;;;14.90
18782;BMP180;9519;51.890;8.970;2023-08-31T18:23:08;99070.00;;;14.80
18782;BMP180;9519;51.890;8.970;2023-08-31T18:28:10;99090.00;;;14.70
18782;BMP180;9519;51.890;8.970;2023-08-31T18:33:12;99099.00;;;14.60
18782;BMP180;9519;51.890;8.970;2023-08-31T18:38:17;99108.00;;;14.50
18782;BMP180;9519;51.890;8.970;2023-08-31T18:43:21;99106.00;;;14.50
18782;BMP180;9519;51.890;8.970;2023-08-31T18:48:23;99102.00;;;14.40
18782;BMP180;9519;51.890;8.970;2023-08-31T18:53:29;99112.00;;;14.40
18782;BMP180;9519;51.890;8.970;2023-08-31T18:58:31;99105.00;;;14.30
18782;BMP180;9519;51.890;8.970;2023-08-31T19:03:34;99105.00;;;14.20
18782;BMP180;9519;51.890;8.970;2023-08-31T19:08:37;99112.00;;;14.20
18782;BMP180;9519;51.890;8.970;2023-08-31T19:13:40;99114.00;;;14.10
18782;BMP180;9519;51.890;8.970;2023-08-31T19:18:42;99109.00;;;14.00
18782;BMP180;9519;51.890;8.970;2023-08-31T19:23:46;99123.00;;;14.00
18782;BMP180;9519;51.890;8.970;2023-08-31T19:28:48;99113.00;;;13.90
18782;BMP180;9519;51.890;8.970;2023-08-31T19:33:51;99108.00;;;13.80
18782;BMP180;9519;51.890;8.970;2023-08-31T19:38:55;99111.00;;;13.70
18782;BMP180;9519;51.890;8.970;2023-08-31T19:43:57;99121.00;;;13.60
18782;BMP180;9519;51.890;8.970;2023-08-31T19:48:59;99112.00;;;13.60
18782;BMP180;9519;51.890;8.970;2023-08-31T19:54:03;99125.00;;;13.50
18782;BMP180;9519;51.890;8.970;2023-08-31T19:59:05;99120.00;;;13.50
18782;BMP180;9519;51.890;8.970;2023-08-31T20:04:08;99121.00;;;13.50
18782;BMP180;9519;51.890;8.970;2023-08-31T20:09:11;99120.00;;;13.40
18782;BMP180;9519;51.890;8.970;2023-08-31T20:14:15;99119.00;;;13.40
18782;BMP180;9519;51.890;8.970;2023-08-31T20:19:17;99131.00;;;13.30
18782;BMP180;9519;51.890;8.970;2023-08-31T20:24:21;99140.00;;;13.20
18782;BMP180;9519;51.890;8.970;2023-08-31T20:29:24;99131.00;;;13.20
18782;BMP180;9519;51.890;8.970;2023-08-31T20:34:26;99149.00;;;13.20
18782;BMP180;9519;51.890;8.970;2023-08-31T20:39:30;99145.00;;;13.20
18782;BMP180;9519;51.890;8.970;2023-08-31T20:44:37;99146.00;;;13.20
18782;BMP180;9519;51.890;8.970;2023-08-31T20:49:39;99154.00;;;13.20
18782;BMP180;9519;51.890;8.970;2023-08-31T20:54:43;99154.00;;;13.20
18782;BMP180;9519;51.890;8.970;2023-08-31T20:59:49;99156.00;;;13.30
18782;BMP180;9519;51.890;8.970;2023-08-31T21:04:51;99157.00;;;13.30
18782;BMP180;9519;51.890;8.970;2023-08-31T21:09:54;99154.00;;;13.30
18782;BMP180;9519;51.890;8.970;2023-08-31T21:14:57;99146.00;;;13.30
18782;BMP180;9519;51.890;8.970;2023-08-31T21:20:01;99155.00;;;13.30
18782;BMP180;9519;51.890;8.970;2023-08-31T21:25:07;99150.00;;;13.40
18782;BMP180;9519;51.890;8.970;2023-08-31T21:30:10;99149.00;;;13.40
18782;BMP180;9519;51.890;8.970;2023-08-31T21:35:12;99148.00;;;13.40
18782;BMP180;9519;51.890;8.970;2023-08-31T21:40:16;99150.00;;;13.30
18782;BMP180;9519;51.890;8.970;2023-08-31T21:45:18;99152.00;;;13.30
18782;BMP180;9519;51.890;8.970;2023-08-31T21:50:20;99146.00;;;13.30
18782;BMP180;9519;51.890;8.970;2023-08-31T21:55:24;99154.00;;;13.30
18782;BMP180;9519;51.890;8.970;2023-08-31T22:00:27;99159.00;;;13.30
18782;BMP180;9519;51.890;8.970;2023-08-31T22:05:29;99153.00;;;13.40
18782;BMP180;9519;51.890;8.970;2023-08-31T22:10:34;99162.00;;;13.40
18782;BMP180;9519;51.890;8.970;2023-08-31T22:15:37;99160.00;;;13.40
18782;BMP180;9519;51.890;8.970;2023-08-31T22:20:40;99159.00;;;13.40
18782;BMP180;9519;51.890;8.970;2023-08-31T22:25:44;99156.00;;;13.40
18782;BMP180;9519;51.890;8.970;2023-08-31T22:30:46;99161.00;;;13.40
18782;BMP180;9519;51.890;8.970;2023-08-31T22:35:48;99164.00;;;13.30
18782;BMP180;9519;51.890;8.970;2023-08-31T22:40:52;99148.00;;;13.30
18782;BMP180;9519;51.890;8.970;2023-08-31T22:45:57;99140.00;;;13.20
18782;BMP180;9519;51.890;8.970;2023-08-31T22:51:00;99147.00;;;13.10
18782;BMP180;9519;51.890;8.970;2023-08-31T22:56:08;99153.00;;;13.10
18782;BMP180;9519;51.890;8.970;2023-08-31T23:01:10;99155.00;;;13.00
18782;BMP180;9519;51.890;8.970;2023-08-31T23:06:12;99148.00;;;13.00
18782;BMP180;9519;51.890;8.970;2023-08-31T23:11:16;99153.00;;;13.00
18782;BMP180;9519;51.890;8.970;2023-08-31T23:16:18;99156.00;;;12.90
18782;BMP180;9519;51.890;8.970;2023-08-31T23:21:20;99147.00;;;12.90
18782;BMP180;9519;51.890;8.970;2023-08-31T23:26:24;99155.00;;;12.80
18782;BMP180;9519;51.890;8.970;2023-08-31T23:31:26;99152.00;;;12.70
18782;BMP180;9519;51.890;8.970;2023-08-31T23:36:31;99154.00;;;12.70
18782;BMP180;9519;51.890;8.970;2023-08-31T23:41:35;99149.00;;;12.60
18782;BMP180;9519;51.890;8.970;2023-08-31T23:46:38;99160.00;;;12.60
18782;BMP180;9519;51.890;8.970;2023-08-31T23:51:40;99157.00;;;12.50
18782;BMP180;9519;51.890;8.970;2023-08-31T23:56:43;99164.00;;;12.50
